SNOW

Not for real navigation. The accuracy of this data is not assured See disclaimer for more information



ICAO NAME COUNTRY WIND Kt GUST Kt VIS m TEMP/DEW C BARO METAR
CWCA Cartwright, Nfld. Canada 10 16 800 0/0 29.65 CWCA 181700Z 05010G16KT 0.5SM -SN VV007 00/00 A2965 RMK SN8 /S04/ SLP043
CYRT Rankin Inlet, N. W. T. Canada 21 29 800 -3/-4 29.46 CYRT 181700Z 11021G29KT 0.5SM -SN BLSN OVC010 M03/M04 A2946 RMK BLSN4SC4 SLP979
CYRB Resolute, N. W. T. Canada 27 0 800 -16/-19 30.23 CYRB 181700Z 12027KT 0.5SM R35/3000FT/N -SN BLSN OVC040 M16/M19 A3023 RMK BLSN2SC6 SLP251
CYXT Terrace, B. C. Canada 0 0 1200 -2/-3 29.78 CYXT 181700Z CCA 00000KT 0.75SM -SN VV008 M02/M03 A2978 RMK SN8 /S07/ SLP096
CYDL 3 0 1200 -13/-16 29.70 CYDL 181700Z AUTO 06003KT 010V140 0.75SM -SN VV016 M13/M16 A2970 RMK SLP111

Show more